Time;durP1;ratioP1;P1;durP2;ratioP2;P2;SDS_P1;SDS_P2;PMS_P1;PMS_P2;Temp;Humidity;BMP_temperature;BMP_pressure;BME280_temperature;BME280_humidity;BME280_pressure;Samples;Min_cycle;Max_cycle;Signal;HPM_P1;HPM_P2
2022/10/24 00:01:30;;;;;;;21.40;17.80;;;;;;;11.16;81.43;100449.23;100679;1284;95394;-57
2022/10/24 00:03:58;;;;;;;21.00;17.40;;;;;;;11.14;81.26;100445.73;100692;1287;96593;-59
2022/10/24 00:06:26;;;;;;;21.50;18.70;;;;;;;11.12;81.32;100447.71;100642;1284;139065;-57
2022/10/24 00:08:54;;;;;;;22.40;18.50;;;;;;;11.14;81.28;100454.78;100712;1283;100221;-58
2022/10/24 00:11:24;;;;;;;23.20;17.70;;;;;;;11.14;81.29;100456.37;100579;1290;139371;-58
2022/10/24 00:13:54;;;;;;;23.60;18.60;;;;;;;11.12;81.16;100449.85;100540;1285;214048;-57
2022/10/24 00:16:21;;;;;;;20.40;17.10;;;;;;;11.08;81.19;100447.47;100700;1289;139424;-59
2022/10/24 00:18:49;;;;;;;20.60;17.40;;;;;;;11.04;81.48;100439.77;100655;1284;107531;-58
2022/10/24 00:21:17;;;;;;;20.00;15.90;;;;;;;11.02;81.58;100443.73;100620;1284;97549;-58
2022/10/24 00:23:45;;;;;;;20.80;16.70;;;;;;;11.05;81.65;100445.61;100581;1287;139475;-58
2022/10/24 00:26:15;;;;;;;20.50;17.40;;;;;;;11.08;81.48;100450.16;100723;1284;96173;-59
2022/10/24 00:28:43;;;;;;;22.10;18.00;;;;;;;11.09;81.38;100456.88;100618;1284;138477;-58
2022/10/24 00:31:14;;;;;;;21.10;17.40;;;;;;;11.09;81.30;100461.67;100673;1289;110348;-58
2022/10/24 00:33:43;;;;;;;20.10;16.50;;;;;;;11.08;81.28;100456.02;100759;1284;98482;-57
2022/10/24 00:36:18;;;;;;;18.70;15.70;;;;;;;11.09;81.24;100462.20;100973;1287;139209;-57
2022/10/24 00:38:47;;;;;;;19.10;16.10;;;;;;;11.09;81.16;100459.19;100656;1298;95945;-58
2022/10/24 00:41:21;;;;;;;20.30;17.10;;;;;;;11.11;81.21;100460.90;100987;1284;138838;-58
2022/10/24 00:43:49;;;;;;;20.40;16.80;;;;;;;11.12;81.15;100459.66;100728;1288;109933;-58
2022/10/24 00:46:19;;;;;;;19.30;16.20;;;;;;;11.10;81.19;100455.42;100544;1297;139566;-59
2022/10/24 00:48:52;;;;;;;19.40;16.20;;;;;;;11.14;81.26;100453.02;100690;1282;107446;-58
2022/10/24 00:51:31;;;;;;;19.50;15.90;;;;;;;11.17;81.20;100450.63;100999;1284;95302;-58
2022/10/24 00:54:03;;;;;;;18.80;15.60;;;;;;;11.20;81.12;100444.13;100570;1287;139508;-58
2022/10/24 00:56:38;;;;;;;19.10;16.00;;;;;;;11.19;80.97;100436.84;100727;1292;109483;-59
2022/10/24 00:59:09;;;;;;;19.00;16.50;;;;;;;11.19;81.13;100435.27;100623;1284;139267;-58
2022/10/24 01:01:37;;;;;;;19.40;15.90;;;;;;;11.20;80.98;100432.73;100724;1290;106789;-56
2022/10/24 01:04:06;;;;;;;19.70;15.60;;;;;;;11.17;81.20;100421.11;100812;1312;95384;-60
2022/10/24 01:06:44;;;;;;;19.00;15.40;;;;;;;11.18;81.26;100420.73;100526;1290;139294;-59
2022/10/24 01:09:32;;;;;;;19.20;15.80;;;;;;;11.17;81.34;100416.83;100681;1290;108796;-58
2022/10/24 01:12:13;;;;;;;18.70;15.20;;;;;;;11.20;81.42;100414.27;100621;1282;139387;-58
2022/10/24 01:14:51;;;;;;;18.30;15.60;;;;;;;11.23;81.32;100413.48;100659;1287;109543;-59
2022/10/24 01:17:42;;;;;;;18.20;14.60;;;;;;;11.28;81.30;100415.29;100518;1287;139977;-59
2022/10/24 01:20:34;;;;;;;19.10;15.50;;;;;;;11.32;81.07;100414.64;101043;1284;95326;-59
2022/10/24 01:23:21;;;;;;;20.20;16.10;;;;;;;11.38;81.12;100417.85;100581;1287;139720;-59
2022/10/24 01:25:55;;;;;;;19.20;16.10;;;;;;;11.41;81.15;100419.36;100661;1304;97910;-58
2022/10/24 01:28:45;;;;;;;18.80;15.20;;;;;;;11.45;81.13;100417.47;100570;1298;139166;-58
2022/10/24 01:31:36;;;;;;;18.90;15.40;;;;;;;11.40;80.51;100415.80;100650;1284;95668;-58
2022/10/24 01:34:17;;;;;;;18.10;15.20;;;;;;;11.33;80.43;100412.13;100749;1289;95361;-58
2022/10/24 01:37:08;;;;;;;19.10;15.90;;;;;;;11.31;80.50;100407.74;100762;1291;108649;-60
2022/10/24 01:39:43;;;;;;;21.60;16.80;;;;;;;11.25;80.50;100403.48;100822;1306;97983;-59
2022/10/24 01:42:14;;;;;;;19.40;15.60;;;;;;;11.21;80.77;100406.42;100563;1287;138743;-58
2022/10/24 01:44:48;;;;;;;19.00;15.80;;;;;;;11.18;80.77;100399.75;100707;1289;95264;-58
2022/10/24 01:47:20;;;;;;;17.50;14.70;;;;;;;11.16;80.95;100399.98;100704;1291;139704;-59
2022/10/24 01:49:54;;;;;;;19.20;16.00;;;;;;;11.18;80.83;100401.00;100715;1290;108751;-57
2022/10/24 01:52:26;;;;;;;19.40;16.50;;;;;;;11.15;80.78;100396.29;100593;1284;139581;-59
2022/10/24 01:54:54;;;;;;;19.50;15.90;;;;;;;11.10;80.69;100389.69;100718;1290;106968;-58
2022/10/24 01:57:27;;;;;;;19.80;16.60;;;;;;;11.06;80.94;100385.16;100711;1291;96264;-57
2022/10/24 01:59:55;;;;;;;18.90;15.10;;;;;;;11.02;80.99;100381.02;100605;1284;139723;-59
2022/10/24 02:02:33;;;;;;;18.70;15.80;;;;;;;10.95;81.06;100370.91;100678;1290;110612;-58
2022/10/24 02:05:28;;;;;;;19.60;16.50;;;;;;;10.90;81.31;100370.34;100596;1289;139340;-58
2022/10/24 02:08:01;;;;;;;20.30;16.40;;;;;;;10.84;81.49;100361.80;100642;1291;108424;-58
2022/10/24 02:10:44;;;;;;;19.20;16.00;;;;;;;10.77;81.74;100353.48;100705;1298;139653;-58
2022/10/24 02:13:33;;;;;;;19.60;15.70;;;;;;;10.73;81.95;100344.89;100730;1289;96684;-65
2022/10/24 02:16:03;;;;;;;19.10;14.90;;;;;;;10.74;82.20;100341.68;100784;1283;108728;-62
2022/10/24 02:18:32;;;;;;;18.80;16.40;;;;;;;10.76;81.95;100339.84;100562;1289;139107;-64
2022/10/24 02:21:27;;;;;;;17.90;15.10;;;;;;;10.75;81.86;100336.12;100710;1298;106428;-64
2022/10/24 02:24:14;;;;;;;17.60;14.40;;;;;;;10.71;81.93;100337.47;100565;1291;139554;-66
2022/10/24 02:26:53;;;;;;;18.70;15.30;;;;;;;10.70;82.02;100342.13;100692;1289;95500;-64
2022/10/24 02:29:41;;;;;;;18.50;15.20;;;;;;;10.68;81.98;100343.06;100517;1287;139051;-64
2022/10/24 02:32:15;;;;;;;18.70;14.90;;;;;;;10.69;82.10;100342.67;100677;1284;98858;-63
2022/10/24 02:34:45;;;;;;;18.60;14.70;;;;;;;10.67;81.86;100337.58;100701;1290;140004;-63
2022/10/24 02:37:16;;;;;;;17.20;14.80;;;;;;;10.63;82.03;100341.27;101024;1288;95670;-64
2022/10/24 02:39:47;;;;;;;19.40;15.10;;;;;;;10.59;82.22;100347.40;100819;1284;95280;-65
2022/10/24 02:42:17;;;;;;;18.30;15.00;;;;;;;10.55;82.20;100348.23;100768;1283;139903;-63
2022/10/24 02:44:47;;;;;;;18.70;15.40;;;;;;;10.52;82.30;100352.02;100786;1287;98230;-64
2022/10/24 02:47:19;;;;;;;18.40;15.00;;;;;;;10.55;82.34;100347.88;100608;1284;139780;-63
2022/10/24 02:49:47;;;;;;;17.60;14.20;;;;;;;10.56;82.14;100344.47;100700;1284;95733;-64
2022/10/24 02:52:16;;;;;;;18.30;15.10;;;;;;;10.57;82.10;100344.10;100639;1289;139954;-63
2022/10/24 02:54:44;;;;;;;18.40;14.70;;;;;;;10.57;81.92;100344.79;100708;1284;109744;-62
2022/10/24 02:57:13;;;;;;;17.90;14.50;;;;;;;10.53;81.94;100339.57;100733;1284;99351;-58
2022/10/24 02:59:41;;;;;;;17.20;13.90;;;;;;;10.47;82.01;100335.48;100536;1283;139809;-57
2022/10/24 03:02:09;;;;;;;18.70;15.10;;;;;;;10.39;82.33;100330.37;100665;1284;97969;-59
2022/10/24 03:04:37;;;;;;;19.10;14.80;;;;;;;10.36;82.39;100325.10;100565;1288;139211;-59
2022/10/24 03:07:06;;;;;;;18.30;14.40;;;;;;;10.33;82.36;100326.23;100662;1284;108625;-58
2022/10/24 03:09:34;;;;;;;18.60;15.50;;;;;;;10.29;82.47;100327.75;100766;1288;97232;-57
2022/10/24 03:12:03;;;;;;;19.20;14.80;;;;;;;10.28;82.55;100331.15;100622;1290;139833;-57
2022/10/24 03:14:32;;;;;;;18.20;15.30;;;;;;;10.28;82.51;100325.30;100844;1305;96064;-58
2022/10/24 03:17:00;;;;;;;17.80;14.40;;;;;;;10.27;82.35;100328.33;100786;1290;140128;-58
2022/10/24 03:19:27;;;;;;;18.60;14.70;;;;;;;10.26;82.45;100325.72;100721;1283;109380;-58
2022/10/24 03:21:55;;;;;;;18.70;14.60;;;;;;;10.23;82.46;100323.30;100723;1284;98532;-58
2022/10/24 03:24:23;;;;;;;18.00;14.30;;;;;;;10.20;82.50;100318.58;100612;1287;139337;-58
2022/10/24 03:27:11;;;;;;;17.10;14.10;;;;;;;10.15;82.67;100310.90;100643;1298;96929;-58
2022/10/24 03:29:38;;;;;;;17.30;14.40;;;;;;;10.13;82.70;100313.08;100591;1284;139661;-58
2022/10/24 03:32:06;;;;;;;16.70;13.20;;;;;;;10.14;82.71;100309.70;100668;1289;109396;-58
2022/10/24 03:34:34;;;;;;;18.40;14.70;;;;;;;10.10;82.77;100306.23;100590;1292;139507;-57
2022/10/24 03:37:02;;;;;;;17.40;14.50;;;;;;;10.08;82.92;100306.84;100631;1284;108463;-57
2022/10/24 03:39:30;;;;;;;17.60;14.20;;;;;;;10.06;82.95;100305.64;100699;1284;96113;-58
2022/10/24 03:41:58;;;;;;;19.00;14.90;;;;;;;10.07;82.96;100305.09;100592;1291;139683;-59
2022/10/24 03:44:26;;;;;;;19.30;15.10;;;;;;;10.09;83.11;100296.52;100704;1291;108354;-57
2022/10/24 03:46:54;;;;;;;17.80;14.80;;;;;;;10.10;82.94;100291.53;100780;1305;139388;-58
2022/10/24 03:49:21;;;;;;;16.70;13.80;;;;;;;10.11;83.09;100290.96;100732;1284;106810;-59
2022/10/24 03:51:49;;;;;;;16.60;13.50;;;;;;;10.09;83.12;100290.30;100654;1291;96062;-58
2022/10/24 03:54:17;;;;;;;18.30;14.40;;;;;;;10.07;83.31;100288.75;100608;1292;138984;-59
2022/10/24 03:56:46;;;;;;;17.00;13.40;;;;;;;10.07;83.53;100289.84;100671;1284;108465;-58
2022/10/24 03:59:14;;;;;;;19.80;15.10;;;;;;;10.06;83.51;100283.11;100728;1298;139677;-58
2022/10/24 04:01:42;;;;;;;17.70;14.50;;;;;;;10.09;83.76;100282.52;100675;1289;107773;-58
2022/10/24 04:04:10;;;;;;;18.90;13.90;;;;;;;10.10;83.73;100285.14;100647;1284;95713;-59
2022/10/24 04:06:39;;;;;;;17.20;14.20;;;;;;;10.11;83.64;100279.96;100759;1290;96147;-59
2022/10/24 04:09:07;;;;;;;18.70;14.10;;;;;;;10.16;83.62;100285.16;100706;1284;108538;-58
2022/10/24 04:11:35;;;;;;;18.60;15.00;;;;;;;10.16;83.51;100287.81;100860;1284;139994;-57
2022/10/24 04:14:04;;;;;;;17.60;14.20;;;;;;;10.19;83.58;100292.70;100723;1291;108011;-57
2022/10/24 04:16:33;;;;;;;19.30;14.40;;;;;;;10.22;83.32;100285.86;100596;1290;140100;-59
2022/10/24 04:19:01;;;;;;;18.50;14.00;;;;;;;10.24;83.29;100279.81;100931;1284;95253;-58
2022/10/24 04:21:29;;;;;;;18.90;14.90;;;;;;;10.26;83.42;100283.84;100702;1290;108416;-58
2022/10/24 04:23:57;;;;;;;18.20;14.70;;;;;;;10.28;83.37;100276.15;100607;1284;139445;-58
2022/10/24 04:26:25;;;;;;;18.70;14.40;;;;;;;10.31;83.24;100268.44;100669;1284;108067;-59
2022/10/24 04:28:53;;;;;;;18.30;14.60;;;;;;;10.30;83.14;100258.52;100598;1284;139562;-59
2022/10/24 04:31:21;;;;;;;17.60;14.30;;;;;;;10.29;83.22;100256.05;100739;1305;95331;-59
2022/10/24 04:33:50;;;;;;;18.30;14.60;;;;;;;10.29;83.31;100247.72;100843;1288;108621;-59
2022/10/24 04:36:18;;;;;;;18.90;14.60;;;;;;;10.30;83.25;100246.64;100570;1284;139360;-58
2022/10/24 04:38:46;;;;;;;18.40;15.20;;;;;;;10.29;83.31;100242.23;100708;1289;107974;-57
2022/10/24 04:41:13;;;;;;;19.60;14.90;;;;;;;10.30;83.37;100238.12;100384;1290;141663;-58
2022/10/24 04:43:41;;;;;;;20.10;15.40;;;;;;;10.30;83.62;100232.08;100704;1300;95765;-58
2022/10/24 04:46:09;;;;;;;19.70;15.60;;;;;;;10.34;83.47;100226.11;100657;1282;110117;-58
2022/10/24 04:48:37;;;;;;;19.00;15.80;;;;;;;10.33;83.46;100220.82;100682;1290;139150;-58
2022/10/24 04:51:05;;;;;;;18.90;15.20;;;;;;;10.32;83.63;100211.59;100732;1284;106980;-58
2022/10/24 04:53:32;;;;;;;18.40;14.90;;;;;;;10.33;83.69;100209.80;100614;1289;140179;-59
2022/10/24 04:56:01;;;;;;;18.30;14.50;;;;;;;10.36;83.75;100210.81;100891;1298;96149;-58
2022/10/24 04:58:29;;;;;;;20.50;15.60;;;;;;;10.39;83.73;100205.94;100619;1290;139404;-56
2022/10/24 05:00:57;;;;;;;18.70;15.30;;;;;;;10.42;83.70;100208.52;100633;1284;98239;-57
2022/10/24 05:03:25;;;;;;;20.80;15.70;;;;;;;10.43;83.79;100210.63;100743;1287;109116;-59
2022/10/24 05:05:53;;;;;;;19.20;15.50;;;;;;;10.47;83.58;100213.88;100485;1288;140288;-58
2022/10/24 05:08:20;;;;;;;20.30;15.70;;;;;;;10.52;83.54;100209.31;100690;1283;95287;-59
2022/10/24 05:10:48;;;;;;;20.60;15.50;;;;;;;10.54;83.46;100205.69;100563;1290;139350;-59
2022/10/24 05:13:16;;;;;;;20.50;16.50;;;;;;;10.58;83.40;100204.34;100705;1290;98153;-59
2022/10/24 05:15:44;;;;;;;20.10;16.30;;;;;;;10.58;83.25;100194.92;100654;1290;108446;-58
2022/10/24 05:18:11;;;;;;;20.40;16.30;;;;;;;10.58;83.29;100192.62;100539;1284;139445;-59
2022/10/24 05:20:39;;;;;;;19.60;15.00;;;;;;;10.62;83.29;100192.14;100677;1291;95708;-59
2022/10/24 05:23:12;;;;;;;21.30;16.00;;;;;;;10.65;83.35;100193.30;100628;1284;139754;-57
2022/10/24 05:25:40;;;;;;;21.80;16.60;;;;;;;10.66;83.17;100186.69;100758;1291;99043;-57
2022/10/24 05:28:07;;;;;;;22.40;17.40;;;;;;;10.67;83.31;100183.13;100681;1290;108333;-57
2022/10/24 05:30:35;;;;;;;20.80;16.20;;;;;;;10.68;83.17;100184.34;100565;1288;140106;-58
2022/10/24 05:33:03;;;;;;;20.90;15.80;;;;;;;10.68;83.22;100193.02;100613;1283;95268;-58
2022/10/24 05:35:31;;;;;;;21.10;16.30;;;;;;;10.73;83.44;100202.83;100550;1290;139799;-58
2022/10/24 05:37:59;;;;;;;20.80;15.80;;;;;;;10.83;83.29;100207.85;100658;1284;98353;-57
2022/10/24 05:40:27;;;;;;;22.20;16.00;;;;;;;10.91;82.82;100207.95;100600;1291;139240;-58
2022/10/24 05:42:55;;;;;;;20.00;16.10;;;;;;;10.95;82.61;100208.20;100766;1284;95424;-57
2022/10/24 05:45:23;;;;;;;20.50;16.20;;;;;;;11.00;82.58;100217.46;100642;1289;95774;-57
2022/10/24 05:47:51;;;;;;;19.50;15.80;;;;;;;11.04;82.47;100220.70;100566;1290;139112;-57
2022/10/24 05:50:19;;;;;;;21.20;16.00;;;;;;;11.06;82.05;100215.85;100733;1291;97708;-58
2022/10/24 05:52:47;;;;;;;20.50;16.60;;;;;;;11.06;82.04;100214.08;100476;1284;139216;-59
2022/10/24 05:55:15;;;;;;;20.80;16.30;;;;;;;11.10;82.32;100216.08;100761;1282;96053;-58
2022/10/24 05:57:45;;;;;;;20.70;16.90;;;;;;;11.15;82.23;100214.33;100715;1291;95211;-58
2022/10/24 06:00:15;;;;;;;19.80;16.10;;;;;;;11.19;81.89;100211.34;100592;1284;139062;-58
2022/10/24 06:02:44;;;;;;;20.90;16.50;;;;;;;11.17;81.86;100204.48;100715;1289;97749;-59
2022/10/24 06:05:17;;;;;;;20.70;15.90;;;;;;;11.25;82.14;100209.58;100577;1289;139209;-58
2022/10/24 06:07:46;;;;;;;30.90;22.30;;;;;;;11.29;81.92;100215.85;100600;1288;95401;-58
2022/10/24 06:10:15;;;;;;;20.60;16.20;;;;;;;11.30;81.61;100224.31;101025;1284;139237;-59
2022/10/24 06:12:43;;;;;;;19.10;15.70;;;;;;;11.30;81.70;100230.39;100577;1284;110432;-58
2022/10/24 06:15:12;;;;;;;21.20;15.60;;;;;;;11.30;81.57;100227.55;100687;1288;97875;-58
2022/10/24 06:17:40;;;;;;;20.50;15.60;;;;;;;11.24;81.47;100207.10;100793;1282;139494;-57
2022/10/24 06:20:08;;;;;;;21.20;16.10;;;;;;;11.21;81.63;100208.98;100696;1291;98826;-57
2022/10/24 06:22:36;;;;;;;20.20;16.00;;;;;;;11.18;81.85;100216.55;100662;1305;139195;-58
2022/10/24 06:25:05;;;;;;;20.50;16.20;;;;;;;11.18;81.76;100211.39;101107;1289;107441;-57
2022/10/24 06:27:35;;;;;;;22.20;16.40;;;;;;;11.18;81.89;100207.30;100763;1284;99160;-59
2022/10/24 06:30:06;;;;;;;21.50;17.30;;;;;;;11.24;81.97;100206.58;100540;1287;139071;-58
2022/10/24 06:32:34;;;;;;;23.10;16.90;;;;;;;11.24;81.83;100195.04;100603;1284;96218;-58
2022/10/24 06:35:05;;;;;;;20.10;16.00;;;;;;;11.23;81.96;100187.95;100497;1284;139198;-57
2022/10/24 06:37:34;;;;;;;20.90;15.90;;;;;;;11.21;82.09;100184.11;100627;1284;109655;-57
2022/10/24 06:40:02;;;;;;;21.20;15.40;;;;;;;11.17;82.18;100179.09;100667;1290;98558;-57
2022/10/24 06:42:30;;;;;;;19.40;15.40;;;;;;;11.15;82.42;100177.55;100595;1287;139513;-57
2022/10/24 06:44:58;;;;;;;20.70;15.30;;;;;;;11.12;82.64;100183.67;100677;1287;95776;-57
2022/10/24 06:47:27;;;;;;;21.70;16.30;;;;;;;11.14;82.69;100202.98;100631;1287;139352;-57
2022/10/24 06:49:55;;;;;;;21.90;16.40;;;;;;;11.18;82.86;100217.95;100654;1291;109341;-56
2022/10/24 06:52:22;;;;;;;20.10;15.60;;;;;;;11.26;82.98;100240.84;100531;1283;140302;-57
2022/10/24 06:54:50;;;;;;;19.80;15.40;;;;;;;11.32;82.71;100238.34;100594;1284;108447;-59
2022/10/24 06:57:18;;;;;;;20.40;15.90;;;;;;;11.33;82.35;100239.73;100728;1289;95622;-58
2022/10/24 06:59:46;;;;;;;21.20;15.50;;;;;;;11.32;82.20;100243.11;100505;1290;139840;-57
2022/10/24 07:02:15;;;;;;;20.70;16.50;;;;;;;11.29;82.23;100251.02;100677;1291;108172;-57
2022/10/24 07:04:43;;;;;;;23.90;16.90;;;;;;;11.32;82.62;100253.08;100592;1284;141975;-58
2022/10/24 07:07:16;;;;;;;20.20;16.60;;;;;;;11.33;82.29;100243.10;100520;1283;108042;-58
2022/10/24 07:09:44;;;;;;;90.30;65.10;;;;;;;11.31;82.39;100243.68;101771;1288;95166;-57
2022/10/24 07:12:11;;;;;;;21.60;17.70;;;;;;;11.34;82.56;100247.68;100416;1291;139720;-57
2022/10/24 07:14:39;;;;;;;21.90;17.10;;;;;;;11.40;82.29;100254.25;100552;1290;109140;-58
2022/10/24 07:17:07;;;;;;;21.50;17.10;;;;;;;11.40;81.88;100254.42;100350;1284;139657;-57
2022/10/24 07:19:35;;;;;;;21.80;17.20;;;;;;;11.40;82.20;100267.77;100321;1283;107094;-57
2022/10/24 07:22:04;;;;;;;22.70;17.60;;;;;;;11.40;82.00;100264.38;100514;1287;95483;-57
2022/10/24 07:24:33;;;;;;;23.80;17.40;;;;;;;11.41;82.10;100260.09;100464;1284;139433;-58
2022/10/24 07:27:01;;;;;;;23.20;17.60;;;;;;;11.37;82.10;100259.66;100579;1287;109489;-57
2022/10/24 07:29:29;;;;;;;22.20;17.90;;;;;;;11.32;82.25;100262.84;100588;1287;140272;-57
2022/10/24 07:31:58;;;;;;;23.20;17.40;;;;;;;11.32;82.35;100254.67;100647;1291;107750;-57
2022/10/24 07:34:26;;;;;;;22.20;17.90;;;;;;;11.34;82.45;100252.48;100559;1291;139612;-57
2022/10/24 07:36:53;;;;;;;23.20;17.00;;;;;;;11.38;82.45;100240.24;100714;1291;95245;-57
2022/10/24 07:39:21;;;;;;;22.70;17.30;;;;;;;11.42;82.66;100226.27;100640;1290;108311;-58
2022/10/24 07:41:49;;;;;;;22.70;17.30;;;;;;;11.45;82.19;100228.64;100593;1291;139946;-58
2022/10/24 07:44:17;;;;;;;67.00;57.70;;;;;;;11.47;82.47;100227.50;100653;1291;110042;-55
2022/10/24 07:46:44;;;;;;;38.00;27.10;;;;;;;11.51;82.08;100231.83;100443;1291;140062;-56
2022/10/24 07:49:12;;;;;;;21.20;16.90;;;;;;;11.50;82.13;100230.08;100665;1291;95551;-57
2022/10/24 07:51:41;;;;;;;20.20;16.00;;;;;;;11.59;82.41;100229.80;100676;1291;109304;-58
2022/10/24 07:54:09;;;;;;;20.90;16.40;;;;;;;11.66;82.13;100231.34;100380;1290;139688;-56
2022/10/24 07:56:37;;;;;;;22.00;17.30;;;;;;;11.69;81.85;100231.96;100577;1287;109346;-57
2022/10/24 07:59:05;;;;;;;21.30;15.50;;;;;;;11.79;82.17;100242.27;100546;1290;139950;-57
2022/10/24 08:01:40;;;;;;;20.30;15.60;;;;;;;11.85;81.86;100230.70;100664;1292;95251;-59
2022/10/24 08:04:09;;;;;;;58.50;36.90;;;;;;;11.85;81.69;100226.61;100697;1287;108745;-58
2022/10/24 08:06:37;;;;;;;19.60;16.10;;;;;;;11.91;81.88;100222.48;100545;1287;140633;-59
2022/10/24 08:09:05;;;;;;;19.80;15.80;;;;;;;12.00;82.06;100224.69;100624;1288;107509;-59
2022/10/24 08:11:33;;;;;;;19.70;14.20;;;;;;;12.13;81.84;100221.92;100515;1290;139854;-59
2022/10/24 08:14:03;;;;;;;19.10;14.60;;;;;;;12.18;81.39;100212.83;100750;1284;95739;-59
2022/10/24 08:16:32;;;;;;;18.40;13.40;;;;;;;12.17;80.89;100214.31;100615;1292;139285;-59
2022/10/24 08:18:59;;;;;;;20.30;15.10;;;;;;;12.15;80.89;100216.17;100846;1290;97221;-59
2022/10/24 08:21:28;;;;;;;19.00;13.80;;;;;;;12.17;81.25;100210.73;100688;1284;107463;-58
2022/10/24 08:23:56;;;;;;;19.80;14.40;;;;;;;12.18;80.83;100206.27;100602;1288;139451;-58
2022/10/24 08:26:25;;;;;;;21.00;15.20;;;;;;;12.17;80.86;100205.23;100675;1284;95278;-59
2022/10/24 08:28:54;;;;;;;19.00;13.70;;;;;;;12.23;81.34;100199.86;100561;1290;139886;-58
2022/10/24 08:31:24;;;;;;;20.70;14.20;;;;;;;12.31;81.47;100203.48;100789;1290;98178;-57
2022/10/24 08:33:54;;;;;;;20.00;14.90;;;;;;;12.39;81.24;100203.92;100633;1288;108281;-57
2022/10/24 08:36:28;;;;;;;20.80;14.50;;;;;;;12.48;81.00;100208.77;100560;1289;139379;-59
2022/10/24 08:38:58;;;;;;;18.20;14.00;;;;;;;12.54;80.37;100206.56;100853;1287;95332;-59
2022/10/24 08:41:36;;;;;;;20.40;13.70;;;;;;;12.59;80.32;100207.25;100448;1287;139629;-57
2022/10/24 08:44:25;;;;;;;67.80;50.90;;;;;;;12.64;80.40;100209.40;100669;1292;97184;-58
2022/10/24 08:47:02;;;;;;;19.90;14.60;;;;;;;12.71;79.98;100214.81;100500;1292;139309;-56
2022/10/24 08:49:48;;;;;;;18.70;13.90;;;;;;;12.81;79.85;100212.83;100687;1289;95590;-57
2022/10/24 08:52:31;;;;;;;18.40;14.50;;;;;;;12.84;79.45;100212.38;100582;1292;138906;-57
2022/10/24 08:55:08;;;;;;;21.10;15.00;;;;;;;12.86;79.74;100212.11;101687;1291;108562;-58
2022/10/24 08:57:55;;;;;;;19.30;13.90;;;;;;;13.01;80.04;100209.04;100670;1291;100322;-58
2022/10/24 09:00:27;;;;;;;19.80;14.50;;;;;;;13.18;79.64;100207.48;100586;1305;139146;-59
2022/10/24 09:03:10;;;;;;;17.00;13.70;;;;;;;13.31;79.00;100207.31;100785;1283;95255;-57
2022/10/24 09:05:47;;;;;;;18.50;13.20;;;;;;;13.39;78.78;100211.12;100476;1287;139145;-60
2022/10/24 09:08:32;;;;;;;17.10;12.70;;;;;;;13.47;78.06;100211.48;100592;1284;108666;-58
2022/10/24 09:11:02;;;;;;;19.30;13.40;;;;;;;13.52;78.05;100208.60;100614;1290;139308;-59
2022/10/24 09:13:34;;;;;;;17.80;12.50;;;;;;;13.76;78.22;100211.17;100603;1290;108832;-60
2022/10/24 09:16:03;;;;;;;22.00;16.70;;;;;;;13.94;77.11;100207.55;100761;1287;95223;-58
2022/10/24 09:18:40;;;;;;;19.50;14.80;;;;;;;13.98;76.73;100201.34;101280;1284;139123;-57
2022/10/24 09:21:12;;;;;;;17.30;12.80;;;;;;;14.12;76.07;100198.92;100757;1287;108549;-56
2022/10/24 09:23:41;;;;;;;18.10;13.30;;;;;;;14.18;76.02;100195.98;100562;1291;138874;-57
2022/10/24 09:26:17;;;;;;;16.90;13.20;;;;;;;14.41;75.95;100197.46;100678;1291;107717;-59
2022/10/24 09:28:45;;;;;;;18.80;12.70;;;;;;;14.70;75.52;100194.20;100655;1289;139746;-60
2022/10/24 09:31:20;;;;;;;17.10;12.60;;;;;;;14.88;74.51;100194.05;100582;1287;95666;-58
2022/10/24 09:33:50;;;;;;;17.10;12.70;;;;;;;14.88;74.13;100198.89;100625;1291;108673;-59
2022/10/24 09:36:20;;;;;;;19.30;13.20;;;;;;;14.79;74.73;100194.33;100644;1291;138766;-59
2022/10/24 09:38:48;;;;;;;18.40;12.90;;;;;;;14.76;75.10;100191.05;100564;1288;108341;-58
2022/10/24 09:41:27;;;;;;;17.40;12.50;;;;;;;14.75;74.95;100197.94;100580;1291;139397;-59
2022/10/24 09:43:58;;;;;;;15.40;11.90;;;;;;;14.69;75.02;100194.05;100717;1287;96166;-58
2022/10/24 09:46:37;;;;;;;17.50;12.20;;;;;;;14.69;75.49;100194.95;100574;1287;139357;-58
2022/10/24 09:49:11;;;;;;;20.70;13.40;;;;;;;14.73;75.82;100188.90;100652;1284;99966;-58
2022/10/24 09:51:44;;;;;;;21.20;13.90;;;;;;;14.73;75.80;100190.14;100716;1291;108714;-58
2022/10/24 09:54:18;;;;;;;23.10;14.40;;;;;;;14.75;75.64;100188.78;100450;1291;140949;-59
2022/10/24 09:57:01;;;;;;;20.70;13.20;;;;;;;14.86;76.00;100187.18;100670;1287;95271;-59
2022/10/24 09:59:34;;;;;;;22.50;13.60;;;;;;;14.99;75.48;100184.97;100576;1284;139688;-59
2022/10/24 10:02:35;;;;;;;24.00;14.00;;;;;;;14.96;74.93;100186.03;100637;1291;100300;-59
2022/10/24 10:05:03;;;;;;;17.90;11.80;;;;;;;14.94;74.92;100185.55;100523;1292;139969;-60
2022/10/24 10:07:35;;;;;;;26.50;16.60;;;;;;;14.94;74.97;100188.23;100347;1290;96602;-58
2022/10/24 10:10:25;;;;;;;22.30;15.20;;;;;;;15.02;75.30;100189.98;100961;1287;96029;-58
2022/10/24 10:13:18;;;;;;;22.00;12.60;;;;;;;15.08;74.89;100193.29;100637;1290;110232;-60
2022/10/24 10:15:58;;;;;;;19.70;12.30;;;;;;;15.04;74.85;100187.02;100919;1289;97324;-58
2022/10/24 10:18:32;;;;;;;25.90;13.40;;;;;;;15.09;74.94;100180.94;101032;1295;139557;-58
2022/10/24 10:21:10;;;;;;;22.50;15.90;;;;;;;15.14;74.98;100177.62;100676;1291;95541;-58
2022/10/24 10:23:53;;;;;;;18.50;11.50;;;;;;;15.21;74.94;100177.80;100552;1284;140205;-58
2022/10/24 10:26:29;;;;;;;16.40;10.80;;;;;;;15.26;74.68;100177.77;100712;1292;109290;-58
2022/10/24 10:28:56;;;;;;;16.80;11.50;;;;;;;15.32;74.51;100174.96;100399;1284;139345;-59
2022/10/24 10:31:39;;;;;;;17.30;11.40;;;;;;;15.44;74.66;100175.09;100567;1290;108049;-59
2022/10/24 10:34:21;;;;;;;18.60;11.50;;;;;;;15.52;74.41;100174.48;101062;1291;96629;-60
2022/10/24 10:37:28;;;;;;;15.80;10.80;;;;;;;15.63;74.31;100180.02;100707;1292;95746;-60
2022/10/24 10:40:02;;;;;;;15.00;11.80;;;;;;;15.78;73.78;100172.30;101972;1294;108590;-60
2022/10/24 10:42:52;;;;;;;14.80;10.30;;;;;;;15.85;73.76;100165.52;100604;1291;139112;-59
2022/10/24 10:45:29;;;;;;;17.10;12.90;;;;;;;15.91;73.58;100167.36;100674;1287;108514;-60
2022/10/24 10:48:19;;;;;;;15.20;9.00;;;;;;;15.92;72.95;100170.70;100472;1287;139316;-58
2022/10/24 10:50:50;;;;;;;13.80;9.60;;;;;;;15.97;73.40;100176.70;100692;1288;96179;-58
2022/10/24 10:53:51;;;;;;;15.30;10.10;;;;;;;16.05;73.21;100179.00;100578;1287;139038;-60
2022/10/24 10:56:21;;;;;;;13.80;9.60;;;;;;;16.07;72.75;100179.20;100650;1284;97484;-59
2022/10/24 10:58:55;;;;;;;13.20;9.40;;;;;;;16.04;72.73;100176.52;100660;1287;139343;-60
2022/10/24 11:01:41;;;;;;;15.60;9.00;;;;;;;16.06;73.05;100171.74;100679;1284;96920;-60
2022/10/24 11:04:12;;;;;;;12.20;8.60;;;;;;;16.09;72.97;100173.92;100722;1290;96947;-60
2022/10/24 11:06:56;;;;;;;13.70;9.60;;;;;;;16.13;72.85;100175.68;100528;1288;138851;-59
2022/10/24 11:09:32;;;;;;;27.30;19.50;;;;;;;16.19;72.53;100179.66;100599;1291;97845;-60
2022/10/24 11:12:11;;;;;;;14.00;8.30;;;;;;;16.24;72.46;100178.48;100518;1290;139035;-60
2022/10/24 11:14:57;;;;;;;13.30;7.90;;;;;;;16.24;72.24;100174.78;100714;1287;95262;-60
2022/10/24 11:17:43;;;;;;;13.00;7.90;;;;;;;16.32;72.88;100172.51;100571;1290;138873;-60
2022/10/24 11:20:38;;;;;;;11.70;7.60;;;;;;;16.45;72.75;100169.33;100554;1292;108274;-59